Time;durP1;ratioP1;P1;durP2;ratioP2;P2;SDS_P1;SDS_P2;PMS_P1;PMS_P2;Temp;Humidity;BMP_temperature;BMP_pressure;BME280_temperature;BME280_humidity;BME280_pressure;Samples;Min_cycle;Max_cycle;Signal;HPM_P1;HPM_P2
2022/01/03 00:02:25;;;;;;;5.55;2.38;;;11.30;48.00;;;;;;6287917;22;20203;-87
2022/01/03 00:04:52;;;;;;;4.18;1.98;;;11.20;49.90;;;;;;6285556;22;20231;-88
2022/01/03 00:07:19;;;;;;;3.85;2.00;;;11.20;50.90;;;;;;6287363;22;20252;-88
2022/01/03 00:09:47;;;;;;;2.83;2.15;;;11.10;50.90;;;;;;6285650;22;20248;-88
2022/01/03 00:12:16;;;;;;;5.85;1.95;;;11.20;51.80;;;;;;6285440;22;20619;-88
2022/01/03 00:14:44;;;;;;;3.40;1.90;;;11.20;51.30;;;;;;6285106;22;20220;-88
2022/01/03 00:17:12;;;;;;;2.95;2.00;;;11.20;51.80;;;;;;6285792;22;20220;-87
2022/01/03 00:19:39;;;;;;;4.93;2.17;;;11.20;52.10;;;;;;6258785;22;20203;-88
2022/01/03 00:22:09;;;;;;;3.47;2.28;;;11.30;51.90;;;;;;6285360;22;20177;-87
2022/01/03 00:24:38;;;;;;;2.45;1.95;;;11.30;52.40;;;;;;6257460;22;20506;-87
2022/01/03 00:27:10;;;;;;;3.92;2.13;;;11.30;52.90;;;;;;6287450;22;20265;-88
2022/01/03 00:29:44;;;;;;;3.13;2.10;;;11.20;54.30;;;;;;6285049;22;20550;-88
2022/01/03 00:32:15;;;;;;;5.30;2.30;;;11.20;54.80;;;;;;6258404;22;20176;-87
2022/01/03 00:34:42;;;;;;;4.28;1.90;;;11.20;55.40;;;;;;6285421;22;20215;-87
2022/01/03 00:37:11;;;;;;;5.25;1.77;;;11.20;55.80;;;;;;6285298;22;20578;-88
2022/01/03 00:39:39;;;;;;;2.63;1.50;;;11.20;56.90;;;;;;6284548;22;20219;-87
2022/01/03 00:42:06;;;;;;;2.42;2.05;;;11.20;57.50;;;;;;6285838;22;20244;-88
2022/01/03 00:44:34;;;;;;;4.40;2.13;;;11.20;58.10;;;;;;6257412;22;20247;-88
2022/01/03 00:47:02;;;;;;;4.28;1.98;;;11.10;59.70;;;;;;6257962;22;20287;-87
2022/01/03 00:49:30;;;;;;;2.63;1.92;;;11.10;60.00;;;;;;6257012;22;20716;-87
2022/01/03 00:51:57;;;;;;;4.78;1.80;;;11.10;59.60;;;;;;6286904;22;20188;-87
2022/01/03 00:54:24;;;;;;;3.65;1.80;;;11.00;60.70;;;;;;6284070;22;20220;-89
2022/01/03 00:56:54;;;;;;;4.05;1.98;;;11.10;60.90;;;;;;6286083;22;20271;-87
2022/01/03 00:59:27;;;;;;;5.47;2.00;;;11.10;61.80;;;;;;6261820;22;20451;-87
2022/01/03 01:02:00;;;;;;;3.38;1.80;;;11.00;61.60;;;;;;6289506;22;20171;-87
2022/01/03 01:04:29;;;;;;;3.95;1.75;;;10.90;63.10;;;;;;6287579;22;20189;-88
2022/01/03 01:06:59;;;;;;;4.32;2.10;;;10.80;66.50;;;;;;6259675;22;20204;-87
2022/01/03 01:09:28;;;;;;;3.38;1.70;;;10.90;66.40;;;;;;6286672;22;20231;-87
2022/01/03 01:11:59;;;;;;;2.10;1.75;;;11.00;63.80;;;;;;6287308;22;20243;-87
2022/01/03 01:14:31;;;;;;;6.50;1.85;;;10.90;64.60;;;;;;6285644;22;20192;-87
2022/01/03 01:16:58;;;;;;;4.03;1.80;;;10.90;65.20;;;;;;6287016;22;20655;-87
2022/01/03 01:19:27;;;;;;;2.70;1.90;;;11.00;64.00;;;;;;6287353;22;20242;-89
2022/01/03 01:21:56;;;;;;;2.70;1.60;;;11.00;64.70;;;;;;6289151;22;20220;-87
2022/01/03 01:24:25;;;;;;;5.45;1.67;;;11.00;65.20;;;;;;6285687;22;20616;-87
2022/01/03 01:29:39;;;;;;;4.68;1.77;;;10.90;66.90;;;;;;6285713;22;20199;-87
2022/01/03 01:32:10;;;;;;;3.90;1.85;;;10.80;67.20;;;;;;6287411;22;20172;-87
2022/01/03 01:34:44;;;;;;;3.83;1.83;;;10.80;67.50;;;;;;6286165;22;20267;-87
2022/01/03 01:37:13;;;;;;;3.47;1.73;;;10.90;67.10;;;;;;6234266;22;20195;-87
2022/01/03 01:39:44;;;;;;;5.85;1.80;;;11.00;66.60;;;;;;6285939;22;20284;-90
2022/01/03 01:42:20;;;;;;;4.10;1.73;;;10.90;67.60;;;;;;6260623;22;20195;-87
2022/01/03 01:44:49;;;;;;;3.35;1.88;;;10.80;68.00;;;;;;6286130;22;20200;-88
2022/01/03 01:47:19;;;;;;;4.20;1.70;;;10.80;70.90;;;;;;6285028;22;20169;-87
2022/01/03 01:49:48;;;;;;;5.38;2.10;;;10.90;68.30;;;;;;6285702;22;20248;-87
2022/01/03 01:52:20;;;;;;;4.22;1.75;;;10.90;68.80;;;;;;6287039;22;20252;-87
2022/01/03 01:54:56;;;;;;;2.38;1.52;;;10.90;68.80;;;;;;6282957;22;20200;-89
2022/01/03 01:57:36;;;;;;;5.28;2.10;;;10.90;68.30;;;;;;6285752;22;20401;-87
2022/01/03 02:00:09;;;;;;;3.40;1.58;;;10.90;68.70;;;;;;6284842;22;20196;-87
2022/01/03 02:02:38;;;;;;;3.47;1.73;;;10.90;69.00;;;;;;6287245;22;20168;-87
2022/01/03 02:05:19;;;;;;;5.18;1.88;;;10.90;69.30;;;;;;6284857;22;20203;-88
2022/01/03 02:08:14;;;;;;;3.30;2.05;;;10.90;70.00;;;;;;6285230;22;20188;-89
2022/01/03 02:10:43;;;;;;;4.32;1.75;;;10.80;69.90;;;;;;6285213;22;20200;-87
2022/01/03 02:13:12;;;;;;;4.60;1.60;;;10.70;72.20;;;;;;6259447;22;20183;-87
2022/01/03 02:15:44;;;;;;;3.15;1.70;;;10.80;70.80;;;;;;6285451;22;20224;-87
2022/01/03 02:18:12;;;;;;;3.47;1.60;;;10.80;70.80;;;;;;6260335;22;20196;-89
2022/01/03 02:20:42;;;;;;;5.13;1.90;;;10.90;70.70;;;;;;6261023;22;20271;-86
2022/01/03 02:23:09;;;;;;;3.85;1.42;;;10.90;70.30;;;;;;6289961;22;20184;-86
2022/01/03 02:25:37;;;;;;;4.60;1.80;;;10.80;70.70;;;;;;6260323;22;20215;-86
2022/01/03 02:28:05;;;;;;;3.10;1.45;;;10.90;70.10;;;;;;6288861;22;20231;-86
2022/01/03 02:30:34;;;;;;;3.33;1.40;;;10.80;70.10;;;;;;6287836;22;20216;-87
2022/01/03 02:33:01;;;;;;;4.88;1.75;;;10.80;71.10;;;;;;6288933;22;20654;-87
2022/01/03 02:35:29;;;;;;;4.97;1.60;;;10.70;72.70;;;;;;6287683;22;20264;-88
2022/01/03 02:37:58;;;;;;;3.88;1.48;;;10.60;73.80;;;;;;6286767;22;20259;-86
2022/01/03 02:40:25;;;;;;;3.33;1.48;;;10.60;73.80;;;;;;6287906;22;20271;-87
2022/01/03 02:42:53;;;;;;;4.22;1.60;;;10.60;73.70;;;;;;6288302;22;20227;-87
2022/01/03 02:45:21;;;;;;;3.60;1.58;;;10.60;73.70;;;;;;6288613;22;20204;-86
2022/01/03 02:47:51;;;;;;;4.35;1.63;;;10.70;73.20;;;;;;6288365;22;20172;-86
2022/01/03 02:50:20;;;;;;;2.78;1.63;;;10.60;73.70;;;;;;6286915;22;20271;-87
2022/01/03 02:52:47;;;;;;;6.18;1.77;;;10.70;72.60;;;;;;6261003;22;20263;-86
2022/01/03 02:55:16;;;;;;;3.95;1.50;;;10.70;71.80;;;;;;6286936;22;20196;-87
2022/01/03 02:57:45;;;;;;;2.92;1.63;;;10.80;71.30;;;;;;6286968;22;20670;-86
2022/01/03 03:00:15;;;;;;;2.67;1.48;;;10.70;72.50;;;;;;6259119;22;20263;-87
2022/01/03 03:02:42;;;;;;;8.50;2.03;;;10.80;70.70;;;;;;6259554;22;20164;-88
2022/01/03 03:05:11;;;;;;;4.13;1.65;;;10.90;70.20;;;;;;6285846;22;20211;-86
2022/01/03 03:07:40;;;;;;;4.10;1.80;;;10.90;69.90;;;;;;6258914;22;20243;-87
2022/01/03 03:10:09;;;;;;;3.25;1.42;;;10.90;70.40;;;;;;6285562;22;20226;-88
2022/01/03 03:12:38;;;;;;;3.42;1.67;;;10.90;70.20;;;;;;6258567;22;20220;-87
2022/01/03 03:15:08;;;;;;;4.82;1.90;;;10.90;70.00;;;;;;6284643;22;20248;-86
2022/01/03 03:17:36;;;;;;;4.43;1.73;;;10.80;72.90;;;;;;6286348;22;20227;-87
2022/01/03 03:20:09;;;;;;;5.70;1.70;;;10.90;70.30;;;;;;6285752;22;20243;-87
2022/01/03 03:22:37;;;;;;;3.45;1.50;;;10.90;70.30;;;;;;6260574;22;20176;-87
2022/01/03 03:25:09;;;;;;;3.75;1.58;;;10.80;72.70;;;;;;6287028;22;20283;-88
2022/01/03 03:27:44;;;;;;;4.93;1.95;;;10.80;71.90;;;;;;6259815;22;20164;-86
2022/01/03 03:30:12;;;;;;;4.32;1.50;;;10.90;72.40;;;;;;6258603;22;20199;-87
2022/01/03 03:32:41;;;;;;;7.43;1.92;;;10.90;71.60;;;;;;6286230;22;20204;-87
2022/01/03 03:35:09;;;;;;;3.10;1.45;;;10.90;71.50;;;;;;6284797;22;20239;-87
2022/01/03 03:37:36;;;;;;;5.07;1.73;;;10.90;72.00;;;;;;6286666;22;20248;-87
2022/01/03 03:40:04;;;;;;;8.15;1.90;;;10.90;71.20;;;;;;6285843;22;20212;-87
2022/01/03 03:42:31;;;;;;;3.88;1.67;;;10.90;71.60;;;;;;6285891;22;20287;-87
2022/01/03 03:45:00;;;;;;;3.28;1.60;;;10.90;71.60;;;;;;6285168;22;20243;-86
2022/01/03 03:47:27;;;;;;;6.50;1.88;;;10.80;72.30;;;;;;6286007;22;20220;-87
2022/01/03 03:49:54;;;;;;;6.57;1.60;;;10.80;74.00;;;;;;6285511;22;20224;-87
2022/01/03 03:52:21;;;;;;;4.38;1.50;;;10.70;73.90;;;;;;6259283;22;20203;-86
2022/01/03 03:54:48;;;;;;;4.88;1.80;;;10.70;73.80;;;;;;6258627;22;20272;-86
2022/01/03 03:57:16;;;;;;;3.70;1.80;;;10.80;73.30;;;;;;6286289;22;20172;-86
2022/01/03 03:59:43;;;;;;;5.57;1.70;;;10.80;71.70;;;;;;6284791;22;20264;-88
2022/01/03 04:02:11;;;;;;;2.72;1.30;;;10.80;72.30;;;;;;6286172;22;20224;-87
2022/01/03 04:04:38;;;;;;;6.25;1.60;;;10.80;71.90;;;;;;6260171;22;20196;-88
2022/01/03 04:07:06;;;;;;;3.67;1.30;;;10.80;72.10;;;;;;6286341;22;20195;-89
2022/01/03 04:09:33;;;;;;;2.65;1.42;;;10.80;70.90;;;;;;6286991;22;20276;-86
2022/01/03 04:12:00;;;;;;;5.93;1.50;;;10.80;72.90;;;;;;6286252;22;20560;-86
2022/01/03 04:14:27;;;;;;;3.78;1.58;;;10.70;73.40;;;;;;6258792;22;20801;-87
2022/01/03 04:16:54;;;;;;;3.97;1.70;;;10.80;71.50;;;;;;6258546;22;20204;-86
2022/01/03 04:19:23;;;;;;;4.82;1.63;;;10.80;71.10;;;;;;6285208;22;20274;-87
2022/01/03 04:21:50;;;;;;;5.75;1.40;;;10.80;70.70;;;;;;6260009;22;20255;-87
2022/01/03 04:24:18;;;;;;;4.05;1.80;;;10.80;71.00;;;;;;6286489;22;20225;-87
2022/01/03 04:26:46;;;;;;;3.15;1.30;;;10.90;70.10;;;;;;6287453;22;20275;-86
2022/01/03 04:29:14;;;;;;;2.70;1.33;;;10.80;70.60;;;;;;6286266;22;20228;-87
2022/01/03 04:31:41;;;;;;;5.45;2.10;;;10.80;71.00;;;;;;6260590;22;20220;-87
2022/01/03 04:34:08;;;;;;;7.57;1.88;;;10.80;70.50;;;;;;6288810;22;20527;-86
2022/01/03 04:36:38;;;;;;;7.72;2.05;;;10.80;70.90;;;;;;6288517;22;20168;-87
2022/01/03 04:39:06;;;;;;;7.20;1.80;;;10.80;71.60;;;;;;6287417;22;20216;-86
2022/01/03 04:41:33;;;;;;;5.35;1.58;;;10.80;70.40;;;;;;6261930;22;20168;-87
2022/01/03 04:44:05;;;;;;;2.80;1.40;;;10.80;71.50;;;;;;6260934;22;20604;-87
2022/01/03 04:46:32;;;;;;;6.38;1.50;;;10.70;72.00;;;;;;6288184;22;20169;-86
2022/01/03 04:48:59;;;;;;;6.53;1.73;;;10.80;72.00;;;;;;6262894;22;20207;-86
2022/01/03 04:51:26;;;;;;;5.82;1.60;;;10.70;72.90;;;;;;6287117;22;20200;-87
2022/01/03 04:53:55;;;;;;;3.58;1.55;;;10.70;73.80;;;;;;6288517;22;20229;-86
2022/01/03 04:56:22;;;;;;;7.68;1.65;;;10.80;72.00;;;;;;6287738;22;20728;-86
2022/01/03 04:58:49;;;;;;;5.35;1.60;;;10.80;70.70;;;;;;6261584;22;20197;-87
2022/01/03 05:01:17;;;;;;;6.28;2.03;;;10.70;72.70;;;;;;6288529;22;20252;-87
2022/01/03 05:03:44;;;;;;;5.70;1.77;;;10.60;73.70;;;;;;6260702;22;20169;-87
2022/01/03 05:06:11;;;;;;;4.82;1.80;;;10.60;73.70;;;;;;6259526;22;20220;-87
2022/01/03 05:08:38;;;;;;;4.63;1.60;;;10.60;73.80;;;;;;6287953;22;20581;-86
2022/01/03 05:11:07;;;;;;;4.70;1.45;;;10.70;73.80;;;;;;6286954;22;20250;-88
2022/01/03 05:13:34;;;;;;;3.15;1.50;;;10.70;73.80;;;;;;6287290;22;20224;-87
2022/01/03 05:16:02;;;;;;;5.20;1.65;;;10.60;73.70;;;;;;6259027;22;20223;-86
2022/01/03 05:18:29;;;;;;;4.03;1.65;;;10.60;73.70;;;;;;6260499;22;20199;-87
2022/01/03 05:20:57;;;;;;;3.70;1.58;;;10.70;73.80;;;;;;6287513;22;20200;-86
2022/01/03 05:23:25;;;;;;;4.75;1.80;;;10.70;72.50;;;;;;6261589;22;20168;-88
2022/01/03 05:25:52;;;;;;;5.53;1.80;;;10.70;72.20;;;;;;6259550;22;20200;-87
2022/01/03 05:28:21;;;;;;;4.78;1.63;;;10.70;72.70;;;;;;6235322;22;20224;-86
2022/01/03 05:30:48;;;;;;;3.65;1.33;;;10.70;72.30;;;;;;6287036;22;20276;-87
2022/01/03 05:33:15;;;;;;;6.03;1.42;;;10.70;72.40;;;;;;6260406;22;20251;-86
2022/01/03 05:35:42;;;;;;;5.63;1.70;;;10.70;73.80;;;;;;6286496;22;20255;-87
2022/01/03 05:38:09;;;;;;;4.70;1.52;;;10.70;72.60;;;;;;6286334;22;20275;-86
2022/01/03 05:40:37;;;;;;;4.13;1.42;;;10.70;72.90;;;;;;6287201;22;20324;-87
2022/01/03 05:43:04;;;;;;;6.90;1.85;;;10.60;73.60;;;;;;6286800;22;20169;-86
2022/01/03 05:45:33;;;;;;;6.25;1.77;;;10.60;73.60;;;;;;6286514;22;20246;-86
2022/01/03 05:48:00;;;;;;;5.45;1.60;;;10.60;72.90;;;;;;6287685;22;20247;-86
2022/01/03 05:50:27;;;;;;;4.15;1.52;;;10.70;71.00;;;;;;6286696;22;20706;-88
2022/01/03 05:52:54;;;;;;;7.15;2.00;;;10.60;71.80;;;;;;6261582;22;20224;-87
2022/01/03 05:55:21;;;;;;;7.38;1.75;;;10.60;72.50;;;;;;6286117;22;20249;-87
2022/01/03 05:57:49;;;;;;;6.13;1.50;;;10.50;72.60;;;;;;6260618;22;20169;-87
2022/01/03 06:00:18;;;;;;;6.03;1.65;;;10.50;72.90;;;;;;6287640;22;20232;-86
2022/01/03 06:02:46;;;;;;;6.82;1.58;;;10.50;71.20;;;;;;6288097;22;20172;-87
2022/01/03 06:05:30;;;;;;;6.07;1.63;;;10.60;70.40;;;;;;6286466;22;20275;-90
2022/01/03 06:07:57;;;;;;;6.45;1.58;;;10.60;69.40;;;;;;6279837;22;20672;-91
2022/01/03 06:10:25;;;;;;;3.55;1.30;;;10.60;70.40;;;;;;6279378;22;20275;-89
2022/01/03 06:12:52;;;;;;;5.50;1.55;;;10.60;69.30;;;;;;6280615;22;20456;-89
2022/01/03 06:15:21;;;;;;;5.60;1.73;;;10.60;69.90;;;;;;6279637;22;20193;-89
2022/01/03 06:17:51;;;;;;;4.95;1.70;;;10.60;69.50;;;;;;6279333;22;20200;-89
2022/01/03 06:20:19;;;;;;;5.30;1.50;;;10.40;70.90;;;;;;6279665;22;20211;-89
2022/01/03 06:22:46;;;;;;;6.43;1.90;;;10.40;71.70;;;;;;6280584;22;20168;-90
2022/01/03 06:25:13;;;;;;;4.63;1.63;;;10.40;71.20;;;;;;6252669;22;20202;-89
2022/01/03 06:27:41;;;;;;;5.78;1.70;;;10.40;70.90;;;;;;6255263;22;20248;-88
2022/01/03 06:30:11;;;;;;;4.68;1.83;;;10.40;73.50;;;;;;6282015;22;20220;-87
2022/01/03 06:32:38;;;;;;;4.82;1.65;;;10.40;71.50;;;;;;6286164;22;20169;-88
2022/01/03 06:35:08;;;;;;;5.63;1.50;;;10.40;72.10;;;;;;6285013;22;20254;-87
2022/01/03 06:37:35;;;;;;;6.32;1.83;;;10.40;71.60;;;;;;6286618;22;20196;-87
2022/01/03 06:40:03;;;;;;;6.93;1.73;;;10.40;72.40;;;;;;6284515;22;20275;-87
2022/01/03 06:42:30;;;;;;;3.60;1.60;;;10.40;71.90;;;;;;6286006;22;20192;-88
2022/01/03 06:44:57;;;;;;;2.65;1.50;;;10.40;73.30;;;;;;6284878;22;20259;-89
2022/01/03 06:47:24;;;;;;;6.22;1.52;;;10.30;73.30;;;;;;6285509;22;20256;-87
2022/01/03 06:49:52;;;;;;;5.93;1.60;;;10.40;71.80;;;;;;6283757;22;20592;-88
2022/01/03 06:52:20;;;;;;;6.65;1.90;;;10.40;71.20;;;;;;6232834;22;20172;-88
2022/01/03 06:54:47;;;;;;;3.63;1.70;;;10.40;73.50;;;;;;6283522;22;20263;-89
2022/01/03 06:57:15;;;;;;;4.28;1.52;;;10.50;70.90;;;;;;6258804;22;20676;-88
2022/01/03 06:59:42;;;;;;;5.78;1.70;;;10.40;71.00;;;;;;6283515;22;20663;-89
2022/01/03 07:02:10;;;;;;;5.70;1.73;;;10.40;70.80;;;;;;6285267;22;20256;-87
2022/01/03 07:04:38;;;;;;;4.15;1.58;;;10.40;71.10;;;;;;6283953;22;20193;-87
2022/01/03 07:07:05;;;;;;;4.07;1.42;;;10.30;71.20;;;;;;6258392;22;20200;-88
2022/01/03 07:09:34;;;;;;;4.65;1.83;;;10.30;71.70;;;;;;6284536;22;20216;-88
2022/01/03 07:12:01;;;;;;;7.55;1.50;;;10.20;73.20;;;;;;6284664;22;20168;-87
2022/01/03 07:20:00;;;;;;;6.80;1.65;;;10.40;70.90;;;;;;6285989;22;20230;-88
2022/01/03 07:22:28;;;;;;;5.25;1.77;;;10.30;72.30;;;;;;6285431;22;20173;-88
2022/01/03 07:24:58;;;;;;;6.47;1.90;;;10.30;73.40;;;;;;6284064;22;20743;-88
2022/01/03 07:27:25;;;;;;;4.55;1.27;;;10.40;70.10;;;;;;6284990;22;20165;-86
2022/01/03 07:29:53;;;;;;;4.10;1.77;;;10.30;70.90;;;;;;6284720;22;20271;-87
2022/01/03 07:32:20;;;;;;;4.88;1.30;;;10.30;72.20;;;;;;6285809;22;20207;-87
2022/01/03 07:34:47;;;;;;;3.67;1.25;;;10.20;74.70;;;;;;6284119;22;20223;-91
2022/01/03 07:37:14;;;;;;;7.88;1.80;;;10.30;70.20;;;;;;6285493;22;20255;-87
2022/01/03 07:39:42;;;;;;;6.05;1.80;;;10.40;69.80;;;;;;6283760;22;20922;-87
2022/01/03 07:42:10;;;;;;;2.92;1.45;;;10.40;69.60;;;;;;6258841;22;20175;-87
2022/01/03 07:44:37;;;;;;;4.38;1.77;;;10.40;68.10;;;;;;6284617;22;20271;-90
2022/01/03 07:47:05;;;;;;;4.50;1.40;;;10.40;68.60;;;;;;6285391;22;20200;-87
2022/01/03 07:49:32;;;;;;;5.60;1.58;;;10.40;67.50;;;;;;6285150;22;20196;-87
2022/01/03 07:51:59;;;;;;;4.95;1.70;;;10.40;67.70;;;;;;6285974;22;20255;-88
2022/01/03 07:54:26;;;;;;;5.22;1.73;;;10.40;69.00;;;;;;6284154;22;20192;-89
2022/01/03 07:56:54;;;;;;;6.25;1.70;;;10.30;68.10;;;;;;6285571;22;20220;-87
2022/01/03 07:59:22;;;;;;;6.18;1.83;;;10.40;67.00;;;;;;6257200;22;20248;-87
2022/01/03 08:01:50;;;;;;;3.83;1.67;;;10.40;68.20;;;;;;6285289;22;20255;-88
2022/01/03 08:04:17;;;;;;;4.18;1.83;;;10.40;67.10;;;;;;6257573;22;20490;-88
2022/01/03 08:06:44;;;;;;;4.13;1.42;;;10.40;66.70;;;;;;6286779;22;20180;-87
2022/01/03 08:09:11;;;;;;;6.80;1.75;;;10.40;67.20;;;;;;6288158;22;20211;-91
2022/01/03 08:11:38;;;;;;;6.40;1.73;;;10.40;67.00;;;;;;6288763;22;20239;-87
2022/01/03 08:14:05;;;;;;;6.57;2.15;;;10.50;66.30;;;;;;6260061;22;20203;-87
2022/01/03 08:16:34;;;;;;;4.13;1.40;;;10.50;64.90;;;;;;6288754;22;20511;-88
2022/01/03 08:19:01;;;;;;;4.35;1.40;;;10.60;64.90;;;;;;6287140;22;20180;-87
2022/01/03 08:21:29;;;;;;;4.32;1.33;;;10.70;63.70;;;;;;6286638;22;20295;-87
2022/01/03 08:23:56;;;;;;;6.40;1.77;;;10.80;62.30;;;;;;6287873;22;20187;-87
2022/01/03 08:26:23;;;;;;;4.00;1.52;;;10.80;61.60;;;;;;6286239;22;20219;-87
2022/01/03 08:28:50;;;;;;;4.57;1.77;;;10.80;63.70;;;;;;6288058;22;20229;-87
2022/01/03 08:31:17;;;;;;;3.75;1.50;;;10.80;62.60;;;;;;6287789;22;20196;-87
2022/01/03 08:33:47;;;;;;;5.32;1.55;;;10.90;61.40;;;;;;6288413;22;20192;-87
2022/01/03 08:36:14;;;;;;;4.32;1.50;;;10.90;61.50;;;;;;6288331;22;20223;-87
2022/01/03 08:38:42;;;;;;;4.72;1.58;;;10.90;61.30;;;;;;6262156;22;20589;-87
2022/01/03 08:41:09;;;;;;;4.05;1.25;;;10.90;60.00;;;;;;6288072;22;20267;-86
2022/01/03 08:43:36;;;;;;;4.65;1.50;;;11.00;59.40;;;;;;6288324;22;20481;-89
2022/01/03 08:46:04;;;;;;;5.95;1.42;;;11.00;59.80;;;;;;6286325;22;20681;-87
2022/01/03 08:48:31;;;;;;;3.85;1.77;;;11.10;58.60;;;;;;6287814;22;20173;-88
2022/01/03 08:51:00;;;;;;;6.03;1.83;;;11.20;58.60;;;;;;6262568;22;20231;-87
2022/01/03 08:53:27;;;;;;;7.60;1.80;;;11.20;58.10;;;;;;6289426;22;20157;-87
2022/01/03 08:55:55;;;;;;;5.03;1.75;;;11.20;58.20;;;;;;6263766;22;20252;-86
2022/01/03 08:58:22;;;;;;;3.78;1.42;;;11.30;57.00;;;;;;6288620;22;20557;-86
2022/01/03 09:00:49;;;;;;;3.30;1.20;;;11.40;55.60;;;;;;6286024;22;20275;-90
2022/01/03 09:03:16;;;;;;;5.60;1.55;;;11.40;55.20;;;;;;6288098;22;20230;-87
2022/01/03 09:05:44;;;;;;;6.15;1.75;;;11.40;54.90;;;;;;6287087;22;20202;-87
2022/01/03 09:08:13;;;;;;;4.20;1.42;;;11.40;55.60;;;;;;6290343;22;20251;-87
2022/01/03 09:10:46;;;;;;;3.88;1.60;;;11.50;55.90;;;;;;6289980;22;20200;-86
2022/01/03 09:13:13;;;;;;;4.43;1.42;;;11.60;53.80;;;;;;6290834;22;20208;-86
2022/01/03 09:18:18;;;;;;;5.25;1.70;;;11.50;54.30;;;;;;6294762;22;20186;-89
2022/01/03 09:20:46;;;;;;;5.25;1.45;;;11.60;53.60;;;;;;6284455;22;20246;-89
2022/01/03 09:23:19;;;;;;;5.22;1.30;;;11.70;51.50;;;;;;6283495;22;20235;-89
2022/01/03 09:29:02;;;;;;;4.50;1.40;;;11.60;51.80;;;;;;6259835;22;20174;-89
2022/01/03 09:31:31;;;;;;;3.67;1.70;;;11.60;51.50;;;;;;6232749;22;20196;-89
2022/01/03 09:34:00;;;;;;;6.38;1.20;;;11.60;52.50;;;;;;6283694;22;20243;-89
2022/01/03 09:36:29;;;;;;;4.65;1.33;;;11.60;52.50;;;;;;6282443;22;20247;-88
2022/01/03 09:38:58;;;;;;;2.67;1.33;;;11.70;51.20;;;;;;6259101;22;20627;-89
2022/01/03 09:49:36;;;;;;;2.42;1.25;;;11.80;49.00;;;;;;6284766;22;20201;-86
2022/01/03 09:56:13;;;;;;;3.95;1.35;;;11.70;51.40;;;;;;6290989;22;20298;-86
2022/01/03 09:59:08;;;;;;;2.55;1.30;;;11.70;52.80;;;;;;6291350;22;20156;-86
2022/01/03 10:05:23;;;;;;;4.43;1.52;;;11.80;51.90;;;;;;6292121;22;20157;-86
2022/01/03 10:14:41;;;;;;;4.72;1.55;;;11.90;51.50;;;;;;6290557;22;20488;-86
2022/01/03 10:17:12;;;;;;;3.33;1.17;;;12.00;52.30;;;;;;6282960;22;20220;-86
2022/01/03 10:19:58;;;;;;;7.50;1.40;;;11.90;51.90;;;;;;6316340;22;20247;-86
2022/01/03 10:22:32;;;;;;;2.47;1.27;;;12.00;51.80;;;;;;6295911;22;20156;-86
2022/01/03 10:25:03;;;;;;;5.45;1.42;;;12.00;51.50;;;;;;6322611;22;20218;-86
2022/01/03 10:30:55;;;;;;;4.55;1.60;;;12.20;48.80;;;;;;6240645;22;20202;-86
2022/01/03 10:33:25;;;;;;;3.25;1.25;;;12.20;48.80;;;;;;6319437;22;20223;-87
2022/01/03 10:35:55;;;;;;;3.17;1.40;;;12.10;48.70;;;;;;6319209;22;20311;-86
2022/01/03 10:38:33;;;;;;;5.75;1.65;;;12.10;48.90;;;;;;6323330;22;20168;-86
2022/01/03 10:41:17;;;;;;;4.18;1.40;;;12.10;48.70;;;;;;6320968;22;20643;-87
2022/01/03 10:44:05;;;;;;;3.80;1.65;;;12.10;49.90;;;;;;6322994;22;20163;-86
2022/01/03 10:50:53;;;;;;;4.90;1.20;;;12.30;48.90;;;;;;6319316;22;20191;-86
2022/01/03 10:53:34;;;;;;;5.10;1.60;;;12.40;49.00;;;;;;6318840;22;20202;-87
2022/01/03 10:56:35;;;;;;;5.65;1.20;;;12.20;48.80;;;;;;6317214;22;20226;-87
2022/01/03 10:59:18;;;;;;;4.50;1.25;;;12.10;48.70;;;;;;6304702;22;20228;-86
2022/01/03 11:01:46;;;;;;;2.60;1.33;;;12.10;48.70;;;;;;6301307;22;20259;-86
2022/01/03 11:04:27;;;;;;;3.53;1.27;;;12.10;48.70;;;;;;6316170;22;20172;-86
2022/01/03 11:13:14;;;;;;;2.33;1.25;;;12.20;48.80;;;;;;6318760;22;20205;-86
2022/01/03 11:21:04;;;;;;;2.80;1.40;;;12.30;48.90;;;;;;6281442;22;20207;-89
2022/01/03 11:23:31;;;;;;;3.60;1.33;;;12.20;49.50;;;;;;6279749;22;20250;-89
2022/01/03 11:26:06;;;;;;;3.05;1.35;;;12.30;48.90;;;;;;6281674;22;20247;-89
2022/01/03 11:28:34;;;;;;;4.60;1.40;;;12.20;48.80;;;;;;6280761;22;20467;-89
2022/01/03 11:31:02;;;;;;;4.82;1.20;;;12.30;49.00;;;;;;6280857;22;20172;-89
2022/01/03 11:33:30;;;;;;;2.90;1.17;;;12.40;49.00;;;;;;6254636;22;20153;-89
2022/01/03 11:36:06;;;;;;;5.63;1.27;;;12.40;49.00;;;;;;6280146;22;20220;-87
2022/01/03 11:39:08;;;;;;;3.17;1.13;;;12.40;49.00;;;;;;6285097;22;20236;-87
2022/01/03 11:41:42;;;;;;;4.93;1.63;;;12.40;49.00;;;;;;6284242;22;20666;-87
2022/01/03 11:44:12;;;;;;;3.05;1.38;;;12.40;49.00;;;;;;6283729;22;20160;-88
2022/01/03 11:46:45;;;;;;;4.18;1.30;;;12.30;48.90;;;;;;6283270;22;20164;-87
2022/01/03 11:53:20;;;;;;;6.30;1.75;;;12.40;49.00;;;;;;6284913;22;20259;-87
2022/01/03 11:55:51;;;;;;;2.28;1.20;;;12.40;49.00;;;;;;6286741;22;20179;-87
2022/01/03 12:04:59;;;;;;;4.43;1.60;;;12.30;48.90;;;;;;6288477;22;20200;-87
2022/01/03 12:07:31;;;;;;;3.05;1.40;;;12.50;49.00;;;;;;6289742;22;20498;-87
2022/01/03 12:10:12;;;;;;;2.67;1.15;;;12.50;49.10;;;;;;6288322;22;20202;-87
2022/01/03 12:12:41;;;;;;;5.50;1.38;;;12.50;48.30;;;;;;6261684;22;20200;-87
2022/01/03 12:18:41;;;;;;;4.60;1.50;;;12.40;47.20;;;;;;6291376;22;20210;-87
2022/01/03 12:21:11;;;;;;;3.63;1.30;;;12.30;46.90;;;;;;6287962;22;20589;-86
2022/01/03 12:23:41;;;;;;;3.78;1.45;;;12.40;46.30;;;;;;6287098;22;20304;-87
2022/01/03 12:26:10;;;;;;;4.45;1.48;;;12.30;46.70;;;;;;6287942;22;20201;-87
2022/01/03 12:29:11;;;;;;;3.15;1.30;;;12.40;46.70;;;;;;6288090;22;20199;-86
2022/01/03 12:32:12;;;;;;;4.82;1.40;;;12.30;46.40;;;;;;6162055;23;20635;-86
2022/01/03 12:34:40;;;;;;;2.70;1.20;;;12.30;46.40;;;;;;6282664;22;20227;-87
2022/01/03 12:40:14;;;;;;;5.70;1.30;;;12.30;46.50;;;;;;6287807;22;20207;-86
2022/01/03 12:43:05;;;;;;;3.00;1.13;;;12.20;47.10;;;;;;6288904;22;20589;-87
2022/01/03 12:45:56;;;;;;;3.85;1.17;;;12.20;48.70;;;;;;6277363;22;20173;-86
2022/01/03 12:49:14;;;;;;;2.50;1.52;;;12.10;48.70;;;;;;6262514;22;20529;-87
2022/01/03 12:51:46;;;;;;;2.75;1.20;;;12.10;48.70;;;;;;6258628;22;20554;-86
2022/01/03 12:54:35;;;;;;;4.32;1.20;;;12.00;48.60;;;;;;6288812;22;20220;-86
2022/01/03 12:57:13;;;;;;;4.28;1.33;;;11.90;48.50;;;;;;6288541;22;20507;-87
2022/01/03 12:59:41;;;;;;;4.03;1.63;;;11.90;48.50;;;;;;6288146;22;20161;-87
2022/01/03 13:02:31;;;;;;;4.50;1.42;;;11.80;48.40;;;;;;6289433;22;20178;-88
2022/01/03 13:05:03;;;;;;;4.93;1.38;;;11.80;48.50;;;;;;6260683;22;20228;-87
2022/01/03 13:07:30;;;;;;;4.07;1.20;;;11.80;48.40;;;;;;6288955;22;20169;-87
2022/01/03 13:09:58;;;;;;;3.15;1.55;;;11.80;48.40;;;;;;6260788;22;20192;-87
2022/01/03 13:12:25;;;;;;;4.47;1.58;;;11.70;48.40;;;;;;6235911;22;20191;-87
2022/01/03 13:15:01;;;;;;;4.72;1.52;;;11.70;49.50;;;;;;6286704;22;20199;-87
2022/01/03 13:17:28;;;;;;;4.03;1.35;;;11.80;48.40;;;;;;6261320;22;20199;-86
2022/01/03 13:20:01;;;;;;;3.88;1.40;;;11.80;48.40;;;;;;6287445;22;20276;-86
2022/01/03 13:22:29;;;;;;;3.40;1.50;;;11.70;48.40;;;;;;6261596;22;20184;-87
2022/01/03 13:25:00;;;;;;;3.35;1.40;;;11.70;48.40;;;;;;6287333;22;20207;-87
2022/01/03 13:27:30;;;;;;;5.30;1.30;;;11.70;48.40;;;;;;6287619;22;20153;-86
2022/01/03 13:32:42;;;;;;;3.30;1.30;;;11.70;49.20;;;;;;6168714;23;20269;-86
2022/01/03 13:35:39;;;;;;;3.75;1.45;;;11.70;48.80;;;;;;6287438;22;20200;-87
2022/01/03 13:38:16;;;;;;;2.70;1.20;;;11.80;48.40;;;;;;6289971;22;20207;-86
2022/01/03 13:40:45;;;;;;;4.75;1.90;;;11.80;48.40;;;;;;6286658;22;20578;-87
2022/01/03 13:43:15;;;;;;;4.60;1.73;;;11.70;48.60;;;;;;6288310;22;20164;-86
2022/01/03 13:51:13;;;;;;;2.40;1.50;;;11.60;49.10;;;;;;6288173;22;20662;-87
2022/01/03 13:53:56;;;;;;;4.90;1.50;;;11.60;48.30;;;;;;6289075;22;20157;-86
2022/01/03 13:56:24;;;;;;;3.38;1.30;;;11.70;49.20;;;;;;6288576;22;20227;-86
2022/01/03 13:58:51;;;;;;;4.25;1.40;;;11.70;48.40;;;;;;6290541;22;20157;-86
2022/01/03 14:01:40;;;;;;;6.97;1.50;;;11.60;48.40;;;;;;6289260;22;20211;-86
2022/01/03 14:04:08;;;;;;;5.22;1.70;;;11.70;48.30;;;;;;6287024;22;20200;-87
2022/01/03 14:06:36;;;;;;;4.22;1.20;;;11.60;48.30;;;;;;6288073;22;20176;-87
2022/01/03 14:09:10;;;;;;;5.13;1.38;;;11.50;48.20;;;;;;6288411;22;20173;-87
2022/01/03 14:17:58;;;;;;;4.47;1.33;;;11.50;48.10;;;;;;6295030;22;20202;-87
2022/01/03 14:20:25;;;;;;;2.55;1.15;;;11.50;48.10;;;;;;6313071;22;20243;-87
2022/01/03 14:26:23;;;;;;;3.78;1.33;;;11.60;48.30;;;;;;6318295;22;20215;-86
2022/01/03 14:29:12;;;;;;;3.53;1.40;;;11.60;48.20;;;;;;6293791;22;20228;-86
2022/01/03 14:31:41;;;;;;;3.30;1.20;;;11.60;48.20;;;;;;6318425;22;20646;-87
2022/01/03 14:34:34;;;;;;;3.78;1.23;;;11.50;48.10;;;;;;6320656;22;20232;-87
2022/01/03 14:37:47;;;;;;;3.05;1.20;;;11.50;47.10;;;;;;6321883;22;20152;-86